EAG2503 SCEL-SBEG
Flight info
| Callsign | EAG2503 |
|---|---|
| Flight time | 4h 9m |
| Altitude | 33000 |
| Route | GUVOL4A GUVOL DCT ILSUR DCT ARMOS DCT PAMAR/N0451F350 DCT TRI DCT UGAXO DCT IGAPO |
| Aircraft | B738/M-SDE2E3FGHIRWXY/LB1 |
Departure
| Time | 2026-05-07 16:23 |
|---|---|
| Airport | Comodoro Arturo Merino Benítez International Airport (SCEL) |
Arrival
| Time | 2026-05-07 20:33 |
|---|---|
| Airport | Eduardo Gomes International Airport (SBEG) |
| Time | Latitude | Longitude | Altitude | Speed | Heading |
|---|---|---|---|---|---|
| 2026-05-07 15:58 | -33.39910 | -70.79147 | 1563 ft | 0 kts | 179° |
| 2026-05-07 16:13 | -33.39904 | -70.79147 | 1563 ft | 4 kts | 179° |
| 2026-05-07 16:13 | -33.39877 | -70.79148 | 1563 ft | 4 kts | 179° |
| 2026-05-07 16:13 | -33.39850 | -70.79148 | 1563 ft | 4 kts | 179° |
| 2026-05-07 16:14 | -33.39823 | -70.79149 | 1563 ft | 4 kts | 178° |
| 2026-05-07 16:14 | -33.39812 | -70.79150 | 1563 ft | 0 kts | 177° |
| 2026-05-07 16:17 | -33.39821 | -70.79145 | 1563 ft | 6 kts | 142° |
| 2026-05-07 16:17 | -33.39836 | -70.79068 | 1563 ft | 11 kts | 91° |
| 2026-05-07 16:18 | -33.39835 | -70.78982 | 1563 ft | 10 kts | 88° |
| 2026-05-07 16:18 | -33.39831 | -70.78897 | 1563 ft | 11 kts | 76° |
| 2026-05-07 16:18 | -33.39763 | -70.78866 | 1563 ft | 11 kts | 44° |
| 2026-05-07 16:18 | -33.39737 | -70.78780 | 1563 ft | 11 kts | 39° |
| 2026-05-07 16:19 | -33.39646 | -70.78776 | 1563 ft | 19 kts | 356° |
| 2026-05-07 16:19 | -33.39475 | -70.78786 | 1563 ft | 30 kts | 357° |
| 2026-05-07 16:19 | -33.39241 | -70.78797 | 1563 ft | 34 kts | 357° |
| 2026-05-07 16:19 | -33.39012 | -70.78807 | 1563 ft | 32 kts | 359° |
| 2026-05-07 16:20 | -33.38799 | -70.78818 | 1563 ft | 29 kts | 356° |
| 2026-05-07 16:20 | -33.38604 | -70.78831 | 1563 ft | 27 kts | 357° |
| 2026-05-07 16:20 | -33.38426 | -70.78841 | 1563 ft | 25 kts | 358° |
| 2026-05-07 16:20 | -33.38262 | -70.78847 | 1563 ft | 23 kts | 356° |
| 2026-05-07 16:21 | -33.38108 | -70.78859 | 1563 ft | 22 kts | 356° |
| 2026-05-07 16:21 | -33.37948 | -70.78868 | 1563 ft | 27 kts | 358° |
| 2026-05-07 16:21 | -33.37765 | -70.78872 | 1563 ft | 25 kts | 359° |
| 2026-05-07 16:21 | -33.37629 | -70.78837 | 1563 ft | 19 kts | 76° |
| 2026-05-07 16:22 | -33.37624 | -70.78693 | 1563 ft | 11 kts | 118° |
| 2026-05-07 16:22 | -33.37712 | -70.78665 | 1563 ft | 22 kts | 177° |
| 2026-05-07 16:22 | -33.38075 | -70.78646 | 1563 ft | 83 kts | 178° |
| 2026-05-07 16:22 | -33.38853 | -70.78602 | 1563 ft | 138 kts | 178° |
| 2026-05-07 16:23 | -33.39971 | -70.78543 | 1618 ft | 180 kts | 178° |
| 2026-05-07 16:23 | -33.41288 | -70.78513 | 2175 ft | 192 kts | 178° |
| 2026-05-07 16:23 | -33.42663 | -70.78478 | 2811 ft | 204 kts | 178° |
| 2026-05-07 16:23 | -33.44119 | -70.78391 | 3378 ft | 216 kts | 178° |
| 2026-05-07 16:24 | -33.45703 | -70.78306 | 3668 ft | 240 kts | 177° |
| 2026-05-07 16:24 | -33.47368 | -70.78235 | 4368 ft | 242 kts | 181° |
| 2026-05-07 16:24 | -33.48993 | -70.78704 | 5100 ft | 243 kts | 207° |
| 2026-05-07 16:24 | -33.50253 | -70.80031 | 5858 ft | 245 kts | 235° |
| 2026-05-07 16:25 | -33.50907 | -70.81972 | 6360 ft | 261 kts | 261° |
| 2026-05-07 16:25 | -33.50837 | -70.84192 | 6910 ft | 274 kts | 280° |
| 2026-05-07 16:25 | -33.50269 | -70.86409 | 7601 ft | 280 kts | 285° |
| 2026-05-07 16:25 | -33.49729 | -70.88644 | 8266 ft | 286 kts | 284° |
| 2026-05-07 16:26 | -33.49163 | -70.90955 | 8944 ft | 291 kts | 285° |
| 2026-05-07 16:26 | -33.48577 | -70.93302 | 9628 ft | 296 kts | 285° |
| 2026-05-07 16:26 | -33.47847 | -70.95623 | 10311 ft | 303 kts | 297° |
| 2026-05-07 16:26 | -33.46484 | -70.97580 | 10864 ft | 315 kts | 319° |
| 2026-05-07 16:27 | -33.44532 | -70.98886 | 11249 ft | 331 kts | 340° |
| 2026-05-07 16:27 | -33.42205 | -70.99333 | 11551 ft | 348 kts | 1° |
| 2026-05-07 16:27 | -33.39766 | -70.98863 | 11839 ft | 363 kts | 16° |
| 2026-05-07 16:27 | -33.37279 | -70.98008 | 12076 ft | 381 kts | 17° |
| 2026-05-07 16:28 | -33.34720 | -70.96969 | 12321 ft | 396 kts | 23° |
| 2026-05-07 16:28 | -33.32102 | -70.95701 | 12543 ft | 412 kts | 24° |
| 2026-05-07 16:28 | -33.29414 | -70.94352 | 12819 ft | 425 kts | 24° |
| 2026-05-07 16:28 | -33.26652 | -70.92977 | 13205 ft | 434 kts | 24° |
| 2026-05-07 16:29 | -33.23876 | -70.91597 | 13626 ft | 441 kts | 24° |
| 2026-05-07 16:29 | -33.21020 | -70.90184 | 14048 ft | 448 kts | 24° |
| 2026-05-07 16:29 | -33.18110 | -70.88746 | 14440 ft | 455 kts | 24° |
| 2026-05-07 16:29 | -33.15164 | -70.87291 | 14763 ft | 460 kts | 24° |
| 2026-05-07 16:30 | -33.12177 | -70.85816 | 15100 ft | 466 kts | 24° |
| 2026-05-07 16:30 | -33.09162 | -70.84328 | 15426 ft | 471 kts | 24° |
| 2026-05-07 16:30 | -33.06158 | -70.82724 | 15755 ft | 475 kts | 28° |
| 2026-05-07 16:30 | -33.03264 | -70.80824 | 16078 ft | 478 kts | 34° |
| 2026-05-07 16:31 | -33.00517 | -70.78563 | 16437 ft | 480 kts | 40° |
| 2026-05-07 16:31 | -32.97925 | -70.76130 | 16901 ft | 482 kts | 41° |
| 2026-05-07 16:31 | -32.95239 | -70.73689 | 17289 ft | 488 kts | 40° |
| 2026-05-07 16:31 | -32.92500 | -70.71270 | 17661 ft | 492 kts | 39° |
| 2026-05-07 16:32 | -32.89733 | -70.68821 | 18020 ft | 496 kts | 40° |
| 2026-05-07 16:32 | -32.86962 | -70.66349 | 18381 ft | 500 kts | 40° |
| 2026-05-07 16:32 | -32.84163 | -70.63856 | 18740 ft | 503 kts | 40° |
| 2026-05-07 16:32 | -32.81347 | -70.61350 | 19083 ft | 506 kts | 39° |
| 2026-05-07 16:33 | -32.78519 | -70.58835 | 19410 ft | 509 kts | 39° |
| 2026-05-07 16:33 | -32.75706 | -70.56337 | 19712 ft | 512 kts | 39° |
| 2026-05-07 16:33 | -32.72839 | -70.53787 | 19993 ft | 516 kts | 39° |
| 2026-05-07 16:33 | -32.69924 | -70.51188 | 20289 ft | 519 kts | 38° |
| 2026-05-07 16:34 | -32.67042 | -70.48645 | 20825 ft | 515 kts | 38° |
| 2026-05-07 16:34 | -32.64209 | -70.46139 | 21207 ft | 515 kts | 39° |
| 2026-05-07 16:34 | -32.61341 | -70.43571 | 21550 ft | 516 kts | 39° |
| 2026-05-07 16:34 | -32.58482 | -70.40982 | 21847 ft | 518 kts | 39° |
| 2026-05-07 16:35 | -32.55577 | -70.38387 | 22119 ft | 521 kts | 37° |
| 2026-05-07 16:35 | -32.52652 | -70.35830 | 22397 ft | 523 kts | 37° |
| 2026-05-07 16:35 | -32.49711 | -70.33261 | 22551 ft | 529 kts | 37° |
| 2026-05-07 16:35 | -32.46752 | -70.30650 | 22834 ft | 529 kts | 38° |
| 2026-05-07 16:36 | -32.43816 | -70.28061 | 23460 ft | 524 kts | 37° |
| 2026-05-07 16:36 | -32.40884 | -70.25518 | 23909 ft | 521 kts | 34° |
| 2026-05-07 16:36 | -32.37821 | -70.23215 | 24109 ft | 524 kts | 28° |
| 2026-05-07 16:36 | -32.34577 | -70.21210 | 24318 ft | 525 kts | 23° |
| 2026-05-07 16:37 | -32.31220 | -70.19622 | 24416 ft | 530 kts | 17° |
| 2026-05-07 16:37 | -32.27732 | -70.18256 | 24875 ft | 525 kts | 15° |
| 2026-05-07 16:37 | -32.24238 | -70.16964 | 25198 ft | 524 kts | 14° |
| 2026-05-07 16:37 | -32.20778 | -70.15657 | 25672 ft | 522 kts | 14° |
| 2026-05-07 16:38 | -32.17322 | -70.14322 | 25870 ft | 525 kts | 15° |
| 2026-05-07 16:38 | -32.13849 | -70.12956 | 26212 ft | 523 kts | 15° |
| 2026-05-07 16:38 | -32.10403 | -70.11588 | 26544 ft | 523 kts | 16° |
| 2026-05-07 16:38 | -32.06945 | -70.10215 | 26718 ft | 527 kts | 17° |
| 2026-05-07 16:39 | -32.03456 | -70.08811 | 26834 ft | 531 kts | 17° |
| 2026-05-07 16:39 | -31.99939 | -70.07393 | 27024 ft | 531 kts | 17° |
| 2026-05-07 16:39 | -31.96468 | -70.05996 | 27673 ft | 522 kts | 16° |
| 2026-05-07 16:39 | -31.93050 | -70.04626 | 28117 ft | 518 kts | 16° |
| 2026-05-07 16:40 | -31.89680 | -70.03277 | 28433 ft | 516 kts | 15° |
| 2026-05-07 16:40 | -31.86267 | -70.01913 | 29005 ft | 509 kts | 15° |
| 2026-05-07 16:40 | -31.82918 | -70.00575 | 29433 ft | 506 kts | 15° |
| 2026-05-07 16:40 | -31.79624 | -69.99260 | 29731 ft | 506 kts | 15° |
| 2026-05-07 16:41 | -31.76288 | -69.97930 | 30008 ft | 506 kts | 15° |
| 2026-05-07 16:41 | -31.72958 | -69.96603 | 30349 ft | 505 kts | 15° |
| 2026-05-07 16:41 | -31.69631 | -69.95279 | 30589 ft | 506 kts | 15° |
| 2026-05-07 16:41 | -31.66292 | -69.93949 | 30857 ft | 506 kts | 15° |
| 2026-05-07 16:42 | -31.62967 | -69.92626 | 31270 ft | 502 kts | 15° |
| 2026-05-07 16:42 | -31.59674 | -69.91317 | 31767 ft | 497 kts | 15° |
| 2026-05-07 16:42 | -31.56399 | -69.90017 | 32032 ft | 497 kts | 15° |
| 2026-05-07 16:42 | -31.53106 | -69.88709 | 32191 ft | 500 kts | 15° |
| 2026-05-07 16:43 | -31.49783 | -69.87385 | 32235 ft | 506 kts | 14° |
| 2026-05-07 16:43 | -31.43033 | -69.84721 | 32330 ft | 516 kts | 14° |
| 2026-05-07 16:43 | -31.39672 | -69.83386 | 32527 ft | 517 kts | 14° |
| 2026-05-07 16:44 | -31.36260 | -69.82040 | 32755 ft | 518 kts | 14° |
| 2026-05-07 16:44 | -31.32834 | -69.80682 | 32935 ft | 519 kts | 14° |
| 2026-05-07 16:44 | -31.29401 | -69.79323 | 33071 ft | 520 kts | 14° |
| 2026-05-07 16:45 | -31.22515 | -69.76611 | 33106 ft | 525 kts | 14° |
| 2026-05-07 16:45 | -31.15570 | -69.73881 | 33119 ft | 527 kts | 14° |
| 2026-05-07 16:46 | -31.08649 | -69.71173 | 33130 ft | 529 kts | 15° |
| 2026-05-07 16:46 | -31.01589 | -69.68554 | 33160 ft | 534 kts | 11° |
| 2026-05-07 16:47 | -30.94370 | -69.66580 | 33173 ft | 530 kts | 7° |
| 2026-05-07 16:47 | -30.87130 | -69.64723 | 33204 ft | 536 kts | 8° |
| 2026-05-07 16:48 | -30.79794 | -69.62776 | 33229 ft | 543 kts | 9° |
| 2026-05-07 16:48 | -30.72426 | -69.60805 | 33244 ft | 549 kts | 9° |
| 2026-05-07 16:49 | -30.64969 | -69.58797 | 33247 ft | 550 kts | 9° |
| 2026-05-07 16:49 | -30.57501 | -69.56783 | 33250 ft | 550 kts | 9° |
| 2026-05-07 16:50 | -30.50041 | -69.54778 | 33260 ft | 550 kts | 9° |
| 2026-05-07 16:50 | -30.42615 | -69.52787 | 33266 ft | 551 kts | 9° |
| 2026-05-07 16:51 | -30.35127 | -69.50783 | 33273 ft | 551 kts | 9° |
| 2026-05-07 16:51 | -30.27652 | -69.48786 | 33278 ft | 552 kts | 9° |
| 2026-05-07 16:52 | -30.20164 | -69.46788 | 33281 ft | 552 kts | 9° |
| 2026-05-07 16:52 | -30.12683 | -69.44796 | 33283 ft | 552 kts | 9° |
| 2026-05-07 16:53 | -30.05213 | -69.42809 | 33268 ft | 548 kts | 9° |
| 2026-05-07 16:53 | -29.97734 | -69.40849 | 33256 ft | 553 kts | 11° |
| 2026-05-07 16:54 | -29.90230 | -69.38839 | 33260 ft | 554 kts | 10° |
| 2026-05-07 16:54 | -29.82725 | -69.36848 | 33254 ft | 553 kts | 10° |
| 2026-05-07 16:55 | -29.75281 | -69.34834 | 33266 ft | 545 kts | 8° |
| 2026-05-07 16:55 | -29.67957 | -69.32946 | 33253 ft | 542 kts | 8° |
| 2026-05-07 16:56 | -29.60531 | -69.31055 | 33242 ft | 550 kts | 11° |
| 2026-05-07 16:56 | -29.49261 | -69.28044 | 33228 ft | 555 kts | 12° |
| 2026-05-07 16:57 | -29.43017 | -69.26395 | 33216 ft | 552 kts | 11° |
| 2026-05-07 16:57 | -29.34319 | -69.24109 | 33201 ft | 551 kts | 11° |
| 2026-05-07 16:58 | -29.26852 | -69.22155 | 33185 ft | 550 kts | 11° |
| 2026-05-07 16:58 | -29.20650 | -69.20532 | 33178 ft | 549 kts | 11° |
| 2026-05-07 16:59 | -29.13208 | -69.18585 | 33168 ft | 547 kts | 10° |
| 2026-05-07 16:59 | -29.05785 | -69.16656 | 33159 ft | 546 kts | 10° |
| 2026-05-07 17:00 | -28.98357 | -69.14723 | 33153 ft | 547 kts | 10° |
| 2026-05-07 17:00 | -28.90944 | -69.12799 | 33149 ft | 547 kts | 10° |
| 2026-05-07 17:01 | -28.83503 | -69.10868 | 33148 ft | 547 kts | 10° |
| 2026-05-07 17:01 | -28.76131 | -69.08959 | 33139 ft | 546 kts | 11° |
| 2026-05-07 17:02 | -28.68731 | -69.07042 | 33133 ft | 545 kts | 10° |
| 2026-05-07 17:02 | -28.61326 | -69.05157 | 33114 ft | 545 kts | 11° |
| 2026-05-07 17:03 | -28.53937 | -69.03230 | 33088 ft | 543 kts | 11° |
| 2026-05-07 17:03 | -28.46572 | -69.01328 | 33071 ft | 541 kts | 11° |
| 2026-05-07 17:04 | -28.39191 | -68.99446 | 33065 ft | 545 kts | 12° |
| 2026-05-07 17:04 | -28.31796 | -68.97535 | 33064 ft | 544 kts | 12° |
| 2026-05-07 17:05 | -28.24444 | -68.95653 | 33081 ft | 547 kts | 12° |
| 2026-05-07 17:05 | -28.17021 | -68.93747 | 33091 ft | 547 kts | 13° |
| 2026-05-07 17:06 | -28.09588 | -68.91847 | 33101 ft | 547 kts | 13° |
| 2026-05-07 17:06 | -28.02133 | -68.89939 | 33107 ft | 548 kts | 13° |
| 2026-05-07 17:07 | -27.94691 | -68.88041 | 33095 ft | 546 kts | 13° |
| 2026-05-07 17:07 | -27.87261 | -68.86150 | 33105 ft | 548 kts | 13° |
| 2026-05-07 17:08 | -27.79868 | -68.84269 | 33100 ft | 547 kts | 13° |
| 2026-05-07 17:08 | -27.72437 | -68.82382 | 33105 ft | 548 kts | 13° |
| 2026-05-07 17:09 | -27.64984 | -68.80492 | 33105 ft | 548 kts | 13° |
| 2026-05-07 17:09 | -27.57549 | -68.78610 | 33107 ft | 548 kts | 13° |
| 2026-05-07 17:10 | -27.50137 | -68.76735 | 33115 ft | 549 kts | 13° |
| 2026-05-07 17:10 | -27.42686 | -68.74853 | 33112 ft | 548 kts | 13° |
| 2026-05-07 17:11 | -27.35225 | -68.72972 | 33120 ft | 549 kts | 13° |
| 2026-05-07 17:11 | -27.27766 | -68.71094 | 33116 ft | 548 kts | 13° |
| 2026-05-07 17:12 | -27.20314 | -68.69219 | 33122 ft | 549 kts | 13° |
| 2026-05-07 17:12 | -27.12889 | -68.67355 | 33123 ft | 549 kts | 13° |
| 2026-05-07 17:13 | -27.05437 | -68.65486 | 33114 ft | 548 kts | 13° |
| 2026-05-07 17:13 | -26.97979 | -68.63618 | 33119 ft | 549 kts | 13° |
| 2026-05-07 17:14 | -26.90528 | -68.61754 | 33114 ft | 548 kts | 13° |
| 2026-05-07 17:14 | -26.83074 | -68.59892 | 33121 ft | 549 kts | 13° |
| 2026-05-07 17:15 | -26.75609 | -68.58030 | 33120 ft | 549 kts | 13° |
| 2026-05-07 17:15 | -26.68159 | -68.56174 | 33124 ft | 549 kts | 13° |
| 2026-05-07 17:16 | -26.60722 | -68.54324 | 33127 ft | 550 kts | 13° |
| 2026-05-07 17:16 | -26.53253 | -68.52468 | 33128 ft | 550 kts | 13° |
| 2026-05-07 17:17 | -26.45781 | -68.50615 | 33132 ft | 550 kts | 13° |
| 2026-05-07 17:17 | -26.38298 | -68.48760 | 33130 ft | 550 kts | 13° |
| 2026-05-07 17:18 | -26.30868 | -68.46922 | 33135 ft | 550 kts | 13° |
| 2026-05-07 17:18 | -26.23385 | -68.45072 | 33132 ft | 550 kts | 13° |
| 2026-05-07 17:19 | -26.15900 | -68.43225 | 33132 ft | 550 kts | 13° |
| 2026-05-07 17:19 | -26.08416 | -68.41380 | 33130 ft | 550 kts | 13° |
| 2026-05-07 17:20 | -26.00944 | -68.39541 | 33128 ft | 550 kts | 13° |
| 2026-05-07 17:20 | -25.93474 | -68.37705 | 33133 ft | 550 kts | 13° |
| 2026-05-07 17:21 | -25.86032 | -68.35877 | 33131 ft | 550 kts | 13° |
| 2026-05-07 17:21 | -25.78556 | -68.34044 | 33135 ft | 550 kts | 13° |
| 2026-05-07 17:22 | -25.71071 | -68.32211 | 33134 ft | 550 kts | 13° |
| 2026-05-07 17:22 | -25.63592 | -68.30382 | 33136 ft | 550 kts | 13° |
| 2026-05-07 17:23 | -25.56148 | -68.28564 | 33136 ft | 550 kts | 13° |
| 2026-05-07 17:23 | -25.48663 | -68.26738 | 33136 ft | 550 kts | 13° |
| 2026-05-07 17:24 | -25.41173 | -68.24913 | 33146 ft | 551 kts | 13° |
| 2026-05-07 17:24 | -25.33674 | -68.23088 | 33145 ft | 551 kts | 13° |
| 2026-05-07 17:25 | -25.26171 | -68.21265 | 33159 ft | 553 kts | 13° |
| 2026-05-07 17:25 | -25.18652 | -68.19440 | 33164 ft | 553 kts | 13° |
| 2026-05-07 17:26 | -25.11135 | -68.17618 | 33166 ft | 552 kts | 13° |
| 2026-05-07 17:26 | -25.03655 | -68.15807 | 33171 ft | 553 kts | 13° |
| 2026-05-07 17:27 | -24.96129 | -68.13987 | 33171 ft | 553 kts | 13° |
| 2026-05-07 17:27 | -24.88617 | -68.12173 | 33171 ft | 552 kts | 13° |
| 2026-05-07 17:28 | -24.81104 | -68.10361 | 33171 ft | 552 kts | 13° |
| 2026-05-07 17:28 | -24.73632 | -68.08561 | 33171 ft | 552 kts | 13° |
| 2026-05-07 17:29 | -24.66120 | -68.06753 | 33171 ft | 552 kts | 13° |
| 2026-05-07 17:29 | -24.58611 | -68.04945 | 33171 ft | 552 kts | 13° |
| 2026-05-07 17:30 | -24.51100 | -68.03140 | 33139 ft | 551 kts | 13° |
| 2026-05-07 17:30 | -24.43637 | -68.01353 | 33101 ft | 547 kts | 13° |
| 2026-05-07 17:31 | -24.36168 | -67.99566 | 33092 ft | 549 kts | 13° |
| 2026-05-07 17:31 | -24.28710 | -67.97749 | 33085 ft | 548 kts | 15° |
| 2026-05-07 17:32 | -24.21454 | -67.95343 | 33083 ft | 548 kts | 20° |
| 2026-05-07 17:32 | -24.15401 | -67.93109 | 33081 ft | 548 kts | 20° |
| 2026-05-07 17:33 | -24.06993 | -67.90089 | 33077 ft | 547 kts | 19° |
| 2026-05-07 17:33 | -23.99727 | -67.87515 | 33088 ft | 548 kts | 19° |
| 2026-05-07 17:34 | -23.92466 | -67.84946 | 33086 ft | 548 kts | 19° |
| 2026-05-07 17:34 | -23.85208 | -67.82382 | 33098 ft | 549 kts | 19° |
| 2026-05-07 17:35 | -23.77926 | -67.79820 | 33099 ft | 549 kts | 19° |
| 2026-05-07 17:35 | -23.70708 | -67.77284 | 33106 ft | 549 kts | 19° |
| 2026-05-07 17:36 | -23.63408 | -67.74724 | 33120 ft | 550 kts | 19° |
| 2026-05-07 17:36 | -23.56128 | -67.72173 | 33106 ft | 549 kts | 19° |
| 2026-05-07 17:37 | -23.48855 | -67.69629 | 33115 ft | 549 kts | 19° |
| 2026-05-07 17:37 | -23.41563 | -67.67080 | 33108 ft | 549 kts | 19° |
| 2026-05-07 17:38 | -23.34337 | -67.64558 | 33109 ft | 549 kts | 19° |
| 2026-05-07 17:38 | -23.27052 | -67.62018 | 33116 ft | 550 kts | 19° |
| 2026-05-07 17:39 | -23.19767 | -67.59481 | 33114 ft | 549 kts | 19° |
| 2026-05-07 17:39 | -23.12469 | -67.56942 | 33131 ft | 551 kts | 19° |
| 2026-05-07 17:40 | -23.05170 | -67.54406 | 33129 ft | 550 kts | 19° |
| 2026-05-07 17:40 | -22.97865 | -67.51871 | 33149 ft | 552 kts | 19° |
| 2026-05-07 17:41 | -22.90540 | -67.49331 | 33146 ft | 552 kts | 19° |
| 2026-05-07 17:41 | -22.83287 | -67.46819 | 33117 ft | 548 kts | 19° |
| 2026-05-07 17:42 | -22.76004 | -67.44300 | 33115 ft | 550 kts | 19° |
| 2026-05-07 17:42 | -22.68713 | -67.41781 | 33109 ft | 549 kts | 19° |
| 2026-05-07 17:43 | -22.62645 | -67.39687 | 33127 ft | 551 kts | 19° |
| 2026-05-07 17:43 | -22.54086 | -67.36736 | 33154 ft | 552 kts | 19° |
| 2026-05-07 17:44 | -22.47998 | -67.34639 | 33165 ft | 552 kts | 19° |
| 2026-05-07 17:44 | -22.40660 | -67.32115 | 33171 ft | 552 kts | 19° |
| 2026-05-07 17:45 | -22.33374 | -67.29611 | 33171 ft | 552 kts | 19° |
| 2026-05-07 17:45 | -22.26055 | -67.27098 | 33171 ft | 552 kts | 19° |
| 2026-05-07 17:46 | -22.18732 | -67.24587 | 33171 ft | 552 kts | 19° |
| 2026-05-07 17:46 | -22.11403 | -67.22077 | 33171 ft | 552 kts | 19° |
| 2026-05-07 17:47 | -22.04080 | -67.19571 | 33171 ft | 552 kts | 19° |
| 2026-05-07 17:47 | -21.96739 | -67.17062 | 33171 ft | 552 kts | 19° |
| 2026-05-07 17:48 | -21.89453 | -67.14575 | 33171 ft | 552 kts | 19° |
| 2026-05-07 17:48 | -21.82112 | -67.12071 | 33171 ft | 552 kts | 19° |
| 2026-05-07 17:49 | -21.74775 | -67.09572 | 33171 ft | 552 kts | 19° |
| 2026-05-07 17:49 | -21.67487 | -67.07091 | 33171 ft | 552 kts | 19° |
| 2026-05-07 17:50 | -21.60155 | -67.04599 | 33170 ft | 552 kts | 19° |
| 2026-05-07 17:50 | -21.52809 | -67.02104 | 33165 ft | 553 kts | 19° |
| 2026-05-07 17:51 | -21.45462 | -66.99612 | 33131 ft | 554 kts | 19° |
| 2026-05-07 17:51 | -21.38101 | -66.97117 | 33121 ft | 553 kts | 19° |
| 2026-05-07 17:52 | -21.30760 | -66.94632 | 33112 ft | 554 kts | 19° |
| 2026-05-07 17:52 | -21.23406 | -66.92146 | 33112 ft | 554 kts | 19° |
| 2026-05-07 17:53 | -21.16048 | -66.89660 | 33110 ft | 554 kts | 19° |
| 2026-05-07 17:53 | -21.08742 | -66.87195 | 33106 ft | 554 kts | 19° |
| 2026-05-07 17:54 | -21.01384 | -66.84714 | 33113 ft | 554 kts | 19° |
| 2026-05-07 17:54 | -20.94030 | -66.82238 | 33107 ft | 554 kts | 19° |
| 2026-05-07 17:55 | -20.86676 | -66.79764 | 33113 ft | 553 kts | 19° |
| 2026-05-07 17:55 | -20.79362 | -66.77306 | 33107 ft | 554 kts | 19° |
| 2026-05-07 17:56 | -20.71994 | -66.74832 | 33108 ft | 554 kts | 19° |
| 2026-05-07 17:56 | -20.64659 | -66.72372 | 33111 ft | 554 kts | 19° |
| 2026-05-07 17:57 | -20.58542 | -66.70323 | 33111 ft | 554 kts | 19° |
| 2026-05-07 17:57 | -20.49962 | -66.67451 | 33138 ft | 552 kts | 19° |
| 2026-05-07 17:58 | -20.42631 | -66.64999 | 33159 ft | 552 kts | 19° |
| 2026-05-07 17:58 | -20.35313 | -66.62555 | 33169 ft | 552 kts | 19° |
| 2026-05-07 17:59 | -20.27969 | -66.60104 | 33170 ft | 552 kts | 19° |
| 2026-05-07 17:59 | -20.20634 | -66.57659 | 33171 ft | 552 kts | 19° |
| 2026-05-07 18:00 | -20.13295 | -66.55215 | 33171 ft | 552 kts | 19° |
| 2026-05-07 18:00 | -20.05987 | -66.52784 | 33167 ft | 552 kts | 19° |
| 2026-05-07 18:01 | -19.98651 | -66.50345 | 33171 ft | 552 kts | 19° |
| 2026-05-07 18:01 | -19.91305 | -66.47906 | 33170 ft | 552 kts | 19° |
| 2026-05-07 18:02 | -19.80302 | -66.44256 | 33171 ft | 552 kts | 19° |
| 2026-05-07 18:03 | -19.72961 | -66.41825 | 33171 ft | 552 kts | 19° |
| 2026-05-07 18:03 | -19.65626 | -66.39397 | 33171 ft | 552 kts | 19° |
| 2026-05-07 18:04 | -19.58319 | -66.36981 | 33171 ft | 552 kts | 19° |
| 2026-05-07 18:04 | -19.50970 | -66.34554 | 33171 ft | 552 kts | 19° |
| 2026-05-07 18:05 | -19.43629 | -66.32131 | 33171 ft | 552 kts | 18° |
| 2026-05-07 18:05 | -19.36285 | -66.29710 | 33171 ft | 552 kts | 18° |
| 2026-05-07 18:06 | -19.28940 | -66.27291 | 33171 ft | 552 kts | 18° |
| 2026-05-07 18:06 | -19.21650 | -66.24892 | 33171 ft | 552 kts | 18° |
| 2026-05-07 18:07 | -19.14315 | -66.22480 | 33171 ft | 552 kts | 18° |
| 2026-05-07 18:07 | -19.06962 | -66.20065 | 33171 ft | 552 kts | 18° |
| 2026-05-07 18:08 | -18.99621 | -66.17656 | 33171 ft | 552 kts | 18° |
| 2026-05-07 18:08 | -18.92268 | -66.15246 | 33171 ft | 552 kts | 18° |
| 2026-05-07 18:09 | -18.84910 | -66.12835 | 33171 ft | 552 kts | 18° |
| 2026-05-07 18:09 | -18.77607 | -66.10441 | 33171 ft | 552 kts | 18° |
| 2026-05-07 18:10 | -18.70273 | -66.08029 | 33175 ft | 552 kts | 16° |
| 2026-05-07 18:10 | -18.62956 | -66.05642 | 33171 ft | 549 kts | 15° |
| 2026-05-07 18:11 | -18.55626 | -66.03288 | 33172 ft | 551 kts | 17° |
| 2026-05-07 18:11 | -18.48323 | -66.00870 | 33171 ft | 548 kts | 15° |
| 2026-05-07 18:12 | -18.41040 | -65.98721 | 33171 ft | 543 kts | 13° |
| 2026-05-07 18:12 | -18.33765 | -65.96592 | 33171 ft | 543 kts | 13° |
| 2026-05-07 18:13 | -18.26466 | -65.94442 | 33171 ft | 543 kts | 14° |
| 2026-05-07 18:13 | -18.19194 | -65.92296 | 33171 ft | 543 kts | 14° |
| 2026-05-07 18:14 | -18.11916 | -65.90139 | 33171 ft | 542 kts | 14° |
| 2026-05-07 18:14 | -18.04666 | -65.87998 | 33171 ft | 540 kts | 15° |
| 2026-05-07 18:15 | -17.97416 | -65.85854 | 33171 ft | 540 kts | 15° |
| 2026-05-07 18:15 | -17.90237 | -65.83736 | 33172 ft | 539 kts | 15° |
| 2026-05-07 18:16 | -17.83014 | -65.81607 | 33171 ft | 538 kts | 15° |
| 2026-05-07 18:16 | -17.75801 | -65.79483 | 33171 ft | 538 kts | 15° |
| 2026-05-07 18:17 | -17.68610 | -65.77369 | 33171 ft | 536 kts | 15° |
| 2026-05-07 18:17 | -17.61434 | -65.75259 | 33171 ft | 534 kts | 15° |
| 2026-05-07 18:18 | -17.54324 | -65.73173 | 33171 ft | 532 kts | 15° |
| 2026-05-07 18:18 | -17.47203 | -65.71082 | 33171 ft | 530 kts | 15° |
| 2026-05-07 18:19 | -17.40110 | -65.69002 | 33171 ft | 528 kts | 15° |
| 2026-05-07 18:19 | -17.33033 | -65.66929 | 33171 ft | 527 kts | 15° |
| 2026-05-07 18:20 | -17.25987 | -65.64866 | 33171 ft | 525 kts | 15° |
| 2026-05-07 18:20 | -17.18949 | -65.62803 | 33171 ft | 524 kts | 15° |
| 2026-05-07 18:21 | -17.11971 | -65.60769 | 33171 ft | 524 kts | 15° |
| 2026-05-07 18:21 | -17.04952 | -65.58719 | 33171 ft | 524 kts | 15° |
| 2026-05-07 18:22 | -16.97941 | -65.56656 | 33171 ft | 522 kts | 14° |
| 2026-05-07 18:22 | -16.90944 | -65.54633 | 33171 ft | 521 kts | 14° |
| 2026-05-07 18:23 | -16.83969 | -65.52575 | 33177 ft | 519 kts | 14° |
| 2026-05-07 18:23 | -16.77030 | -65.50564 | 33173 ft | 515 kts | 12° |
| 2026-05-07 18:24 | -16.70184 | -65.48583 | 33171 ft | 512 kts | 12° |
| 2026-05-07 18:24 | -16.63334 | -65.46596 | 33171 ft | 509 kts | 12° |
| 2026-05-07 18:25 | -16.56533 | -65.44622 | 33171 ft | 506 kts | 12° |
| 2026-05-07 18:25 | -16.49755 | -65.42655 | 33171 ft | 504 kts | 12° |
| 2026-05-07 18:26 | -16.43011 | -65.40700 | 33171 ft | 502 kts | 12° |
| 2026-05-07 18:26 | -16.36303 | -65.38755 | 33171 ft | 500 kts | 12° |
| 2026-05-07 18:27 | -16.29651 | -65.36829 | 33172 ft | 498 kts | 12° |
| 2026-05-07 18:27 | -16.22978 | -65.34897 | 33171 ft | 497 kts | 12° |
| 2026-05-07 18:28 | -16.16320 | -65.32972 | 33169 ft | 495 kts | 12° |
| 2026-05-07 18:28 | -16.09687 | -65.31054 | 33148 ft | 495 kts | 12° |
| 2026-05-07 18:29 | -16.03036 | -65.29134 | 33097 ft | 496 kts | 12° |
| 2026-05-07 18:29 | -15.97496 | -65.27535 | 33078 ft | 496 kts | 12° |
| 2026-05-07 18:30 | -15.90838 | -65.25614 | 33068 ft | 497 kts | 12° |
| 2026-05-07 18:30 | -15.83089 | -65.23381 | 33060 ft | 497 kts | 12° |
| 2026-05-07 18:31 | -15.76434 | -65.21464 | 33064 ft | 496 kts | 12° |
| 2026-05-07 18:31 | -15.70856 | -65.19858 | 33062 ft | 496 kts | 12° |
| 2026-05-07 18:32 | -15.64228 | -65.17951 | 33056 ft | 497 kts | 12° |
| 2026-05-07 18:32 | -15.57559 | -65.16034 | 33062 ft | 496 kts | 12° |
| 2026-05-07 18:33 | -15.50894 | -65.14120 | 33041 ft | 497 kts | 12° |
| 2026-05-07 18:33 | -15.44229 | -65.12206 | 33028 ft | 498 kts | 12° |
| 2026-05-07 18:34 | -15.37547 | -65.10289 | 33019 ft | 498 kts | 12° |
| 2026-05-07 18:34 | -15.30859 | -65.08371 | 33007 ft | 499 kts | 12° |
| 2026-05-07 18:35 | -15.24175 | -65.06456 | 32997 ft | 499 kts | 12° |
| 2026-05-07 18:35 | -15.17482 | -65.04540 | 32985 ft | 496 kts | 12° |
| 2026-05-07 18:36 | -15.10864 | -65.02645 | 32966 ft | 491 kts | 12° |
| 2026-05-07 18:36 | -15.04337 | -65.00776 | 32945 ft | 489 kts | 12° |
| 2026-05-07 18:37 | -14.97747 | -64.98893 | 32910 ft | 486 kts | 12° |
| 2026-05-07 18:37 | -14.91275 | -64.97046 | 32891 ft | 486 kts | 12° |
| 2026-05-07 18:38 | -14.84753 | -64.95185 | 32883 ft | 486 kts | 12° |
| 2026-05-07 18:38 | -14.78246 | -64.93290 | 32880 ft | 487 kts | 14° |
| 2026-05-07 18:39 | -14.71828 | -64.90972 | 32882 ft | 489 kts | 16° |
| 2026-05-07 18:39 | -14.65401 | -64.88626 | 32883 ft | 489 kts | 15° |
| 2026-05-07 18:40 | -14.58967 | -64.86303 | 32884 ft | 489 kts | 15° |
| 2026-05-07 18:40 | -14.52534 | -64.83992 | 32896 ft | 491 kts | 15° |
| 2026-05-07 18:41 | -14.46071 | -64.81673 | 32902 ft | 491 kts | 15° |
| 2026-05-07 18:41 | -14.39667 | -64.79373 | 32914 ft | 491 kts | 15° |
| 2026-05-07 18:42 | -14.33154 | -64.77039 | 32937 ft | 492 kts | 15° |
| 2026-05-07 18:42 | -14.26719 | -64.74736 | 32947 ft | 493 kts | 15° |
| 2026-05-07 18:43 | -14.20235 | -64.72417 | 32939 ft | 492 kts | 15° |
| 2026-05-07 18:43 | -14.13803 | -64.70119 | 32912 ft | 488 kts | 15° |
| 2026-05-07 18:44 | -14.07383 | -64.67825 | 32898 ft | 488 kts | 15° |
| 2026-05-07 18:44 | -14.00956 | -64.65532 | 32895 ft | 489 kts | 15° |
| 2026-05-07 18:45 | -13.94564 | -64.63251 | 32892 ft | 488 kts | 15° |
| 2026-05-07 18:45 | -13.88140 | -64.60961 | 32890 ft | 488 kts | 15° |
| 2026-05-07 18:46 | -13.81703 | -64.58668 | 32883 ft | 489 kts | 15° |
| 2026-05-07 18:46 | -13.75272 | -64.56378 | 32877 ft | 488 kts | 15° |
| 2026-05-07 18:47 | -13.68899 | -64.54110 | 32877 ft | 488 kts | 15° |
| 2026-05-07 18:47 | -13.62466 | -64.51822 | 32885 ft | 489 kts | 15° |
| 2026-05-07 18:48 | -13.56016 | -64.49529 | 32889 ft | 491 kts | 15° |
| 2026-05-07 18:48 | -13.49568 | -64.47238 | 32884 ft | 490 kts | 15° |
| 2026-05-07 18:49 | -13.43125 | -64.44951 | 32886 ft | 489 kts | 15° |
| 2026-05-07 18:49 | -13.36684 | -64.42665 | 32904 ft | 491 kts | 15° |
| 2026-05-07 18:50 | -13.30191 | -64.40362 | 32909 ft | 495 kts | 15° |
| 2026-05-07 18:50 | -13.23674 | -64.38052 | 32915 ft | 494 kts | 15° |
| 2026-05-07 18:51 | -13.17224 | -64.35767 | 32918 ft | 493 kts | 15° |
| 2026-05-07 18:51 | -13.10724 | -64.33465 | 32918 ft | 495 kts | 15° |
| 2026-05-07 18:52 | -13.04215 | -64.31162 | 32918 ft | 494 kts | 15° |
| 2026-05-07 18:52 | -12.97723 | -64.28866 | 32917 ft | 495 kts | 15° |
| 2026-05-07 18:53 | -12.91201 | -64.26561 | 32918 ft | 495 kts | 15° |
| 2026-05-07 18:53 | -12.84699 | -64.24264 | 32920 ft | 495 kts | 15° |
| 2026-05-07 18:54 | -12.78177 | -64.21961 | 32918 ft | 495 kts | 15° |
| 2026-05-07 18:54 | -12.71674 | -64.19666 | 32922 ft | 495 kts | 15° |
| 2026-05-07 18:55 | -12.65152 | -64.17366 | 32922 ft | 495 kts | 15° |
| 2026-05-07 18:55 | -12.58669 | -64.15080 | 32920 ft | 495 kts | 15° |
| 2026-05-07 18:56 | -12.52161 | -64.12787 | 32920 ft | 495 kts | 15° |
| 2026-05-07 18:56 | -12.45643 | -64.10492 | 32919 ft | 495 kts | 15° |
| 2026-05-07 18:57 | -12.39102 | -64.08190 | 32918 ft | 495 kts | 15° |
| 2026-05-07 18:57 | -12.32587 | -64.05898 | 32921 ft | 495 kts | 15° |
| 2026-05-07 18:58 | -12.26121 | -64.03625 | 32923 ft | 494 kts | 15° |
| 2026-05-07 18:58 | -12.19618 | -64.01337 | 32923 ft | 494 kts | 15° |
| 2026-05-07 18:59 | -12.13111 | -63.99050 | 32923 ft | 494 kts | 15° |
| 2026-05-07 18:59 | -12.06603 | -63.96766 | 32923 ft | 494 kts | 15° |
| 2026-05-07 19:00 | -12.00098 | -63.94485 | 32925 ft | 494 kts | 15° |
| 2026-05-07 19:00 | -11.93590 | -63.92204 | 32924 ft | 494 kts | 15° |
| 2026-05-07 19:01 | -11.87115 | -63.89971 | 32924 ft | 494 kts | 14° |
| 2026-05-07 19:01 | -11.80581 | -63.87779 | 32924 ft | 494 kts | 14° |
| 2026-05-07 19:02 | -11.74061 | -63.85586 | 32930 ft | 494 kts | 14° |
| 2026-05-07 19:02 | -11.67537 | -63.83390 | 32934 ft | 494 kts | 14° |
| 2026-05-07 19:03 | -11.61014 | -63.81194 | 32935 ft | 494 kts | 14° |
| 2026-05-07 19:03 | -11.54490 | -63.78994 | 32935 ft | 493 kts | 15° |
| 2026-05-07 19:04 | -11.47962 | -63.76793 | 32932 ft | 494 kts | 15° |
| 2026-05-07 19:04 | -11.41432 | -63.74595 | 32932 ft | 494 kts | 15° |
| 2026-05-07 19:05 | -11.34944 | -63.72411 | 32932 ft | 494 kts | 15° |
| 2026-05-07 19:05 | -11.28411 | -63.70215 | 32932 ft | 494 kts | 15° |
| 2026-05-07 19:06 | -11.21866 | -63.68016 | 32930 ft | 495 kts | 15° |
| 2026-05-07 19:06 | -11.12051 | -63.64719 | 32928 ft | 494 kts | 15° |
| 2026-05-07 19:07 | -11.05522 | -63.62527 | 32927 ft | 494 kts | 15° |
| 2026-05-07 19:07 | -10.99018 | -63.60344 | 32927 ft | 495 kts | 15° |
| 2026-05-07 19:08 | -10.92468 | -63.58148 | 32926 ft | 496 kts | 15° |
| 2026-05-07 19:08 | -10.85898 | -63.55945 | 32926 ft | 496 kts | 15° |
| 2026-05-07 19:09 | -10.79339 | -63.53748 | 32926 ft | 496 kts | 15° |
| 2026-05-07 19:09 | -10.72767 | -63.51547 | 32925 ft | 496 kts | 15° |
| 2026-05-07 19:10 | -10.66239 | -63.49362 | 32924 ft | 496 kts | 15° |
| 2026-05-07 19:10 | -10.59668 | -63.47163 | 32924 ft | 496 kts | 15° |
| 2026-05-07 19:11 | -10.53102 | -63.44967 | 32923 ft | 496 kts | 15° |
| 2026-05-07 19:11 | -10.46544 | -63.42775 | 32923 ft | 496 kts | 15° |
| 2026-05-07 19:12 | -10.40026 | -63.40597 | 32922 ft | 496 kts | 15° |
| 2026-05-07 19:12 | -10.33470 | -63.38407 | 32920 ft | 495 kts | 15° |
| 2026-05-07 19:13 | -10.26917 | -63.36219 | 32920 ft | 495 kts | 15° |
| 2026-05-07 19:13 | -10.20362 | -63.34032 | 32920 ft | 495 kts | 16° |
| 2026-05-07 19:14 | -10.13846 | -63.31859 | 32908 ft | 494 kts | 16° |
| 2026-05-07 19:14 | -10.07304 | -63.29677 | 32901 ft | 494 kts | 16° |
| 2026-05-07 19:15 | -10.00771 | -63.27500 | 32900 ft | 494 kts | 16° |
| 2026-05-07 19:15 | -9.94244 | -63.25325 | 32898 ft | 494 kts | 16° |
| 2026-05-07 19:16 | -9.88764 | -63.23501 | 32898 ft | 494 kts | 16° |
| 2026-05-07 19:16 | -9.82257 | -63.21335 | 32896 ft | 494 kts | 16° |
| 2026-05-07 19:17 | -9.75723 | -63.19160 | 32895 ft | 494 kts | 16° |
| 2026-05-07 19:17 | -9.69229 | -63.17001 | 32894 ft | 494 kts | 16° |
| 2026-05-07 19:18 | -9.62704 | -63.14831 | 32890 ft | 493 kts | 16° |
| 2026-05-07 19:18 | -9.56183 | -63.12664 | 32890 ft | 493 kts | 16° |
| 2026-05-07 19:19 | -9.49649 | -63.10493 | 32890 ft | 493 kts | 16° |
| 2026-05-07 19:19 | -9.43128 | -63.08328 | 32887 ft | 493 kts | 16° |
| 2026-05-07 19:20 | -9.36597 | -63.06160 | 32887 ft | 493 kts | 16° |
| 2026-05-07 19:20 | -9.30125 | -63.04013 | 32887 ft | 493 kts | 16° |
| 2026-05-07 19:21 | -9.23606 | -63.01851 | 32887 ft | 493 kts | 16° |
| 2026-05-07 19:21 | -9.17086 | -62.99689 | 32887 ft | 493 kts | 16° |
| 2026-05-07 19:22 | -9.10566 | -62.97528 | 32884 ft | 492 kts | 16° |
| 2026-05-07 19:22 | -9.04087 | -62.95382 | 32883 ft | 492 kts | 16° |
| 2026-05-07 19:23 | -8.97568 | -62.93223 | 32883 ft | 493 kts | 16° |
| 2026-05-07 19:23 | -8.91031 | -62.91059 | 32881 ft | 493 kts | 17° |
| 2026-05-07 19:24 | -8.84524 | -62.88906 | 32881 ft | 493 kts | 17° |
| 2026-05-07 19:24 | -8.78039 | -62.86761 | 32880 ft | 493 kts | 17° |
| 2026-05-07 19:25 | -8.71503 | -62.84599 | 32880 ft | 493 kts | 17° |
| 2026-05-07 19:25 | -8.64979 | -62.82443 | 32881 ft | 493 kts | 17° |
| 2026-05-07 19:26 | -8.58460 | -62.80289 | 32881 ft | 493 kts | 17° |
| 2026-05-07 19:26 | -8.51968 | -62.78145 | 32881 ft | 493 kts | 17° |
| 2026-05-07 19:27 | -8.45443 | -62.75990 | 32882 ft | 493 kts | 17° |
| 2026-05-07 19:27 | -8.38914 | -62.73835 | 32881 ft | 493 kts | 17° |
| 2026-05-07 19:28 | -8.32390 | -62.71682 | 32881 ft | 493 kts | 17° |
| 2026-05-07 19:28 | -8.25864 | -62.69530 | 32881 ft | 493 kts | 17° |
| 2026-05-07 19:29 | -8.19339 | -62.67379 | 32881 ft | 493 kts | 17° |
| 2026-05-07 19:29 | -8.12811 | -62.65227 | 32881 ft | 493 kts | 17° |
| 2026-05-07 19:30 | -8.06298 | -62.63081 | 32881 ft | 493 kts | 17° |
| 2026-05-07 19:30 | -7.99808 | -62.60943 | 32880 ft | 493 kts | 17° |
| 2026-05-07 19:31 | -7.93283 | -62.58795 | 32881 ft | 493 kts | 17° |
| 2026-05-07 19:31 | -7.86754 | -62.56646 | 32882 ft | 493 kts | 17° |
| 2026-05-07 19:32 | -7.80218 | -62.54495 | 32882 ft | 493 kts | 17° |
| 2026-05-07 19:32 | -7.73694 | -62.52349 | 32882 ft | 493 kts | 17° |
| 2026-05-07 19:33 | -7.67204 | -62.50215 | 32882 ft | 493 kts | 17° |
| 2026-05-07 19:33 | -7.60673 | -62.48068 | 32881 ft | 493 kts | 17° |
| 2026-05-07 19:34 | -7.54134 | -62.45919 | 32881 ft | 493 kts | 17° |
| 2026-05-07 19:34 | -7.47603 | -62.43773 | 32880 ft | 493 kts | 17° |
| 2026-05-07 19:35 | -7.41121 | -62.41644 | 32880 ft | 493 kts | 17° |
| 2026-05-07 19:35 | -7.34590 | -62.39500 | 32877 ft | 492 kts | 17° |
| 2026-05-07 19:36 | -7.28078 | -62.37363 | 32876 ft | 492 kts | 17° |
| 2026-05-07 19:36 | -7.21557 | -62.35223 | 32876 ft | 492 kts | 17° |
| 2026-05-07 19:37 | -7.15037 | -62.33085 | 32876 ft | 492 kts | 17° |
| 2026-05-07 19:37 | -7.08550 | -62.30957 | 32876 ft | 492 kts | 17° |
| 2026-05-07 19:38 | -7.02023 | -62.28818 | 32876 ft | 492 kts | 17° |
| 2026-05-07 19:38 | -6.95506 | -62.26682 | 32876 ft | 492 kts | 17° |
| 2026-05-07 19:39 | -6.88984 | -62.24545 | 32876 ft | 492 kts | 17° |
| 2026-05-07 19:39 | -6.82463 | -62.22409 | 32876 ft | 492 kts | 17° |
| 2026-05-07 19:40 | -6.75953 | -62.20277 | 32876 ft | 492 kts | 17° |
| 2026-05-07 19:40 | -6.69479 | -62.18158 | 32876 ft | 492 kts | 17° |
| 2026-05-07 19:41 | -6.62948 | -62.16021 | 32876 ft | 492 kts | 17° |
| 2026-05-07 19:41 | -6.56439 | -62.13892 | 32876 ft | 492 kts | 17° |
| 2026-05-07 19:42 | -6.49922 | -62.11760 | 32876 ft | 492 kts | 17° |
| 2026-05-07 19:42 | -6.43405 | -62.09629 | 32876 ft | 492 kts | 17° |
| 2026-05-07 19:43 | -6.36881 | -62.07496 | 32876 ft | 492 kts | 17° |
| 2026-05-07 19:43 | -6.30368 | -62.05368 | 32876 ft | 492 kts | 17° |
| 2026-05-07 19:44 | -6.23840 | -62.03235 | 32876 ft | 492 kts | 17° |
| 2026-05-07 19:44 | -6.17362 | -62.01119 | 32876 ft | 492 kts | 17° |
| 2026-05-07 19:45 | -6.10839 | -61.98989 | 32876 ft | 492 kts | 17° |
| 2026-05-07 19:45 | -6.04322 | -61.96861 | 32876 ft | 492 kts | 17° |
| 2026-05-07 19:46 | -5.97800 | -61.94732 | 32876 ft | 492 kts | 17° |
| 2026-05-07 19:46 | -5.91274 | -61.92602 | 32876 ft | 493 kts | 17° |
| 2026-05-07 19:47 | -5.84753 | -61.90473 | 32876 ft | 493 kts | 17° |
| 2026-05-07 19:47 | -5.78272 | -61.88359 | 32876 ft | 493 kts | 17° |
| 2026-05-07 19:48 | -5.71747 | -61.86232 | 32876 ft | 493 kts | 17° |
| 2026-05-07 19:48 | -5.65215 | -61.84103 | 32876 ft | 493 kts | 17° |
| 2026-05-07 19:49 | -5.58703 | -61.81978 | 32875 ft | 492 kts | 17° |
| 2026-05-07 19:49 | -5.52187 | -61.79848 | 32871 ft | 492 kts | 17° |
| 2026-05-07 19:50 | -5.45662 | -61.77716 | 32868 ft | 492 kts | 17° |
| 2026-05-07 19:50 | -5.39148 | -61.75588 | 32865 ft | 492 kts | 17° |
| 2026-05-07 19:51 | -5.32633 | -61.73459 | 32863 ft | 492 kts | 17° |
| 2026-05-07 19:51 | -5.26136 | -61.71337 | 32862 ft | 492 kts | 17° |
| 2026-05-07 19:52 | -5.19618 | -61.69208 | 32861 ft | 492 kts | 17° |
| 2026-05-07 19:52 | -5.13091 | -61.67076 | 32861 ft | 492 kts | 17° |
| 2026-05-07 19:53 | -5.06585 | -61.64952 | 32861 ft | 492 kts | 17° |
| 2026-05-07 19:53 | -5.00065 | -61.62787 | 32865 ft | 493 kts | 19° |
| 2026-05-07 19:54 | -4.93928 | -61.59825 | 32875 ft | 495 kts | 30° |
| 2026-05-07 19:54 | -4.88091 | -61.56158 | 32876 ft | 495 kts | 31° |
| 2026-05-07 19:55 | -4.82280 | -61.52440 | 32876 ft | 495 kts | 31° |
| 2026-05-07 19:55 | -4.76455 | -61.48712 | 32876 ft | 495 kts | 31° |
| 2026-05-07 19:56 | -4.70673 | -61.45012 | 32876 ft | 495 kts | 31° |
| 2026-05-07 19:56 | -4.64865 | -61.41296 | 32876 ft | 495 kts | 31° |
| 2026-05-07 19:57 | -4.59054 | -61.37575 | 32876 ft | 495 kts | 31° |
| 2026-05-07 19:57 | -4.53244 | -61.33856 | 32876 ft | 495 kts | 31° |
| 2026-05-07 19:58 | -4.47472 | -61.30164 | 32876 ft | 495 kts | 31° |
| 2026-05-07 19:58 | -4.41651 | -61.26441 | 32876 ft | 495 kts | 31° |
| 2026-05-07 19:59 | -4.35846 | -61.22729 | 32876 ft | 495 kts | 31° |
| 2026-05-07 19:59 | -4.30019 | -61.19004 | 32367 ft | 495 kts | 31° |
| 2026-05-07 20:00 | -4.27122 | -61.17153 | 31565 ft | 495 kts | 32° |
| 2026-05-07 20:00 | -4.24225 | -61.15302 | 30733 ft | 496 kts | 32° |
| 2026-05-07 20:00 | -4.21349 | -61.13465 | 29906 ft | 496 kts | 32° |
| 2026-05-07 20:00 | -4.18432 | -61.11601 | 29068 ft | 496 kts | 33° |
| 2026-05-07 20:01 | -4.15521 | -61.09740 | 28236 ft | 496 kts | 33° |
| 2026-05-07 20:01 | -4.12607 | -61.07877 | 27384 ft | 495 kts | 33° |
| 2026-05-07 20:01 | -4.09730 | -61.06038 | 26514 ft | 494 kts | 33° |
| 2026-05-07 20:01 | -4.06800 | -61.04165 | 25622 ft | 494 kts | 33° |
| 2026-05-07 20:02 | -4.03918 | -61.02324 | 24943 ft | 489 kts | 33° |
| 2026-05-07 20:02 | -4.01068 | -61.00504 | 24260 ft | 483 kts | 33° |
| 2026-05-07 20:02 | -3.99190 | -60.99304 | 23804 ft | 480 kts | 33° |
| 2026-05-07 20:02 | -3.95487 | -60.96937 | 22902 ft | 473 kts | 34° |
| 2026-05-07 20:03 | -3.92731 | -60.95176 | 22228 ft | 468 kts | 34° |
| 2026-05-07 20:03 | -3.89993 | -60.93428 | 21555 ft | 463 kts | 34° |
| 2026-05-07 20:03 | -3.87296 | -60.91705 | 20889 ft | 458 kts | 34° |
| 2026-05-07 20:03 | -3.84618 | -60.89995 | 20223 ft | 452 kts | 34° |
| 2026-05-07 20:04 | -3.81982 | -60.88312 | 19567 ft | 447 kts | 34° |
| 2026-05-07 20:04 | -3.79378 | -60.86649 | 18912 ft | 442 kts | 34° |
| 2026-05-07 20:04 | -3.77661 | -60.85554 | 18483 ft | 438 kts | 34° |
| 2026-05-07 20:04 | -3.75107 | -60.83923 | 17831 ft | 433 kts | 34° |
| 2026-05-07 20:05 | -3.72579 | -60.82310 | 17188 ft | 428 kts | 34° |
| 2026-05-07 20:05 | -3.70096 | -60.80698 | 16549 ft | 422 kts | 36° |
| 2026-05-07 20:05 | -3.67727 | -60.78998 | 15913 ft | 417 kts | 38° |
| 2026-05-07 20:05 | -3.65434 | -60.77246 | 15288 ft | 412 kts | 39° |
| 2026-05-07 20:06 | -3.63166 | -60.75506 | 14654 ft | 407 kts | 38° |
| 2026-05-07 20:06 | -3.60948 | -60.73824 | 14036 ft | 403 kts | 38° |
| 2026-05-07 20:06 | -3.58715 | -60.72144 | 13413 ft | 399 kts | 37° |
| 2026-05-07 20:06 | -3.56501 | -60.70486 | 12795 ft | 395 kts | 37° |
| 2026-05-07 20:07 | -3.54309 | -60.68847 | 12128 ft | 393 kts | 37° |
| 2026-05-07 20:07 | -3.52112 | -60.67205 | 11431 ft | 392 kts | 37° |
| 2026-05-07 20:07 | -3.49928 | -60.65575 | 10802 ft | 390 kts | 37° |
| 2026-05-07 20:07 | -3.47765 | -60.63961 | 10354 ft | 383 kts | 37° |
| 2026-05-07 20:08 | -3.45680 | -60.62404 | 10324 ft | 364 kts | 37° |
| 2026-05-07 20:08 | -3.43696 | -60.60924 | 10296 ft | 348 kts | 37° |
| 2026-05-07 20:08 | -3.41793 | -60.59504 | 10218 ft | 335 kts | 37° |
| 2026-05-07 20:08 | -3.39961 | -60.58138 | 10138 ft | 322 kts | 37° |
| 2026-05-07 20:09 | -3.38189 | -60.56816 | 10058 ft | 311 kts | 37° |
| 2026-05-07 20:09 | -3.36507 | -60.55558 | 9980 ft | 300 kts | 37° |
| 2026-05-07 20:09 | -3.34868 | -60.54335 | 9903 ft | 290 kts | 37° |
| 2026-05-07 20:10 | -3.31689 | -60.51961 | 9401 ft | 283 kts | 37° |
| 2026-05-07 20:10 | -3.30117 | -60.50788 | 9101 ft | 281 kts | 37° |
| 2026-05-07 20:10 | -3.28551 | -60.49619 | 8800 ft | 280 kts | 37° |
| 2026-05-07 20:10 | -3.26996 | -60.48457 | 8502 ft | 278 kts | 37° |
| 2026-05-07 20:11 | -3.25446 | -60.47300 | 8201 ft | 276 kts | 37° |
| 2026-05-07 20:11 | -3.23909 | -60.46156 | 7902 ft | 275 kts | 37° |
| 2026-05-07 20:11 | -3.22376 | -60.45014 | 7601 ft | 273 kts | 37° |
| 2026-05-07 20:11 | -3.20854 | -60.43881 | 7301 ft | 272 kts | 37° |
| 2026-05-07 20:12 | -3.19363 | -60.42772 | 7010 ft | 270 kts | 37° |
| 2026-05-07 20:12 | -3.17843 | -60.41640 | 6710 ft | 268 kts | 37° |
| 2026-05-07 20:12 | -3.16369 | -60.40542 | 6415 ft | 266 kts | 37° |
| 2026-05-07 20:12 | -3.14885 | -60.39439 | 6111 ft | 264 kts | 37° |
| 2026-05-07 20:13 | -3.13420 | -60.38348 | 5809 ft | 262 kts | 37° |
| 2026-05-07 20:13 | -3.11956 | -60.37255 | 5504 ft | 261 kts | 38° |
| 2026-05-07 20:13 | -3.10495 | -60.36183 | 5197 ft | 259 kts | 37° |
| 2026-05-07 20:13 | -3.09054 | -60.35102 | 4884 ft | 258 kts | 38° |
| 2026-05-07 20:14 | -3.07622 | -60.34030 | 4568 ft | 257 kts | 37° |
| 2026-05-07 20:14 | -3.06186 | -60.32959 | 4252 ft | 256 kts | 37° |
| 2026-05-07 20:14 | -3.04804 | -60.31843 | 3974 ft | 253 kts | 46° |
| 2026-05-07 20:14 | -3.03887 | -60.30372 | 3886 ft | 250 kts | 71° |
| 2026-05-07 20:15 | -3.03655 | -60.28667 | 3887 ft | 245 kts | 89° |
| 2026-05-07 20:15 | -3.03707 | -60.27023 | 3873 ft | 234 kts | 91° |
| 2026-05-07 20:15 | -3.03750 | -60.25426 | 3861 ft | 226 kts | 91° |
| 2026-05-07 20:15 | -3.03792 | -60.23876 | 3862 ft | 221 kts | 91° |
| 2026-05-07 20:16 | -3.03829 | -60.22344 | 3866 ft | 219 kts | 90° |
| 2026-05-07 20:16 | -3.03834 | -60.20818 | 3871 ft | 219 kts | 89° |
| 2026-05-07 20:16 | -3.03832 | -60.19300 | 3875 ft | 219 kts | 89° |
| 2026-05-07 20:16 | -3.03834 | -60.17788 | 3876 ft | 219 kts | 89° |
| 2026-05-07 20:17 | -3.03836 | -60.16262 | 3876 ft | 220 kts | 89° |
| 2026-05-07 20:17 | -3.03837 | -60.14715 | 3879 ft | 224 kts | 89° |
| 2026-05-07 20:17 | -3.03841 | -60.13145 | 3884 ft | 226 kts | 89° |
| 2026-05-07 20:17 | -3.03845 | -60.11574 | 3876 ft | 226 kts | 89° |
| 2026-05-07 20:18 | -3.03848 | -60.10004 | 3879 ft | 226 kts | 89° |
| 2026-05-07 20:18 | -3.03852 | -60.08443 | 3874 ft | 224 kts | 89° |
| 2026-05-07 20:18 | -3.03855 | -60.06885 | 3874 ft | 222 kts | 89° |
| 2026-05-07 20:18 | -3.03836 | -60.05351 | 3869 ft | 220 kts | 83° |
| 2026-05-07 20:19 | -3.03297 | -60.03936 | 3852 ft | 220 kts | 53° |
| 2026-05-07 20:19 | -3.02110 | -60.03005 | 3857 ft | 220 kts | 24° |
| 2026-05-07 20:19 | -3.00580 | -60.02807 | 3872 ft | 226 kts | 354° |
| 2026-05-07 20:19 | -2.99130 | -60.03407 | 3873 ft | 229 kts | 324° |
| 2026-05-07 20:20 | -2.98149 | -60.04654 | 3873 ft | 231 kts | 295° |
| 2026-05-07 20:20 | -2.97881 | -60.06210 | 3884 ft | 232 kts | 269° |
| 2026-05-07 20:20 | -2.98100 | -60.07815 | 3906 ft | 233 kts | 260° |
| 2026-05-07 20:20 | -2.98457 | -60.09400 | 3896 ft | 234 kts | 257° |
| 2026-05-07 20:21 | -2.98854 | -60.10980 | 3886 ft | 234 kts | 258° |
| 2026-05-07 20:21 | -2.99000 | -60.12596 | 3870 ft | 234 kts | 274° |
| 2026-05-07 20:21 | -2.98701 | -60.14183 | 3875 ft | 232 kts | 289° |
| 2026-05-07 20:21 | -2.98041 | -60.15647 | 3880 ft | 230 kts | 299° |
| 2026-05-07 20:22 | -2.97222 | -60.17032 | 3878 ft | 230 kts | 303° |
| 2026-05-07 20:22 | -2.96379 | -60.18398 | 3876 ft | 230 kts | 302° |
| 2026-05-07 20:22 | -2.95562 | -60.19771 | 3876 ft | 230 kts | 302° |
| 2026-05-07 20:22 | -2.94749 | -60.21152 | 3876 ft | 230 kts | 302° |
| 2026-05-07 20:23 | -2.93938 | -60.22534 | 3876 ft | 230 kts | 302° |
| 2026-05-07 20:23 | -2.93002 | -60.23819 | 3851 ft | 229 kts | 321° |
| 2026-05-07 20:23 | -2.91655 | -60.24599 | 3875 ft | 225 kts | 339° |
| 2026-05-07 20:23 | -2.90168 | -60.25091 | 3883 ft | 225 kts | 346° |
| 2026-05-07 20:24 | -2.88647 | -60.25477 | 3878 ft | 225 kts | 348° |
| 2026-05-07 20:24 | -2.87124 | -60.25846 | 3876 ft | 225 kts | 347° |
| 2026-05-07 20:24 | -2.85598 | -60.26206 | 3866 ft | 224 kts | 356° |
| 2026-05-07 20:24 | -2.84101 | -60.25929 | 3847 ft | 220 kts | 29° |
| 2026-05-07 20:25 | -2.83032 | -60.24876 | 3858 ft | 219 kts | 62° |
| 2026-05-07 20:25 | -2.82799 | -60.23367 | 3876 ft | 233 kts | 100° |
| 2026-05-07 20:25 | -2.83611 | -60.21923 | 3907 ft | 249 kts | 136° |
| 2026-05-07 20:25 | -2.85191 | -60.21175 | 3908 ft | 259 kts | 169° |
| 2026-05-07 20:26 | -2.86986 | -60.21204 | 3916 ft | 265 kts | 188° |
| 2026-05-07 20:26 | -2.88778 | -60.21633 | 3913 ft | 265 kts | 191° |
| 2026-05-07 20:26 | -2.90570 | -60.22052 | 3897 ft | 264 kts | 192° |
| 2026-05-07 20:26 | -2.92360 | -60.22482 | 3888 ft | 264 kts | 192° |
| 2026-05-07 20:27 | -2.94127 | -60.22969 | 3881 ft | 264 kts | 198° |
| 2026-05-07 20:27 | -2.95840 | -60.23663 | 3882 ft | 265 kts | 204° |
| 2026-05-07 20:27 | -2.97515 | -60.24465 | 3722 ft | 270 kts | 202° |
| 2026-05-07 20:27 | -2.99275 | -60.25117 | 3430 ft | 272 kts | 197° |
| 2026-05-07 20:28 | -3.01060 | -60.25552 | 3134 ft | 256 kts | 187° |
| 2026-05-07 20:28 | -3.02730 | -60.25369 | 2990 ft | 233 kts | 153° |
| 2026-05-07 20:28 | -3.03789 | -60.24285 | 2938 ft | 209 kts | 111° |
| 2026-05-07 20:28 | -3.03987 | -60.22897 | 3001 ft | 202 kts | 90° |
| 2026-05-07 20:29 | -3.03919 | -60.21506 | 3034 ft | 198 kts | 86° |
| 2026-05-07 20:29 | -3.03868 | -60.20127 | 2971 ft | 199 kts | 88° |
| 2026-05-07 20:29 | -3.03852 | -60.18722 | 2710 ft | 202 kts | 89° |
| 2026-05-07 20:29 | -3.03847 | -60.17335 | 2431 ft | 196 kts | 89° |
| 2026-05-07 20:30 | -3.03847 | -60.15999 | 2166 ft | 189 kts | 90° |
| 2026-05-07 20:30 | -3.03848 | -60.14724 | 1917 ft | 177 kts | 90° |
| 2026-05-07 20:30 | -3.03849 | -60.13515 | 1685 ft | 173 kts | 90° |
| 2026-05-07 20:30 | -3.03851 | -60.12320 | 1478 ft | 167 kts | 90° |
| 2026-05-07 20:31 | -3.03852 | -60.11181 | 1235 ft | 161 kts | 90° |
| 2026-05-07 20:31 | -3.03853 | -60.10077 | 1016 ft | 155 kts | 90° |
| 2026-05-07 20:31 | -3.03855 | -60.09017 | 814 ft | 151 kts | 90° |
| 2026-05-07 20:31 | -3.03856 | -60.07973 | 618 ft | 149 kts | 90° |
| 2026-05-07 20:32 | -3.03854 | -60.06931 | 430 ft | 151 kts | 90° |
| 2026-05-07 20:32 | -3.03860 | -60.05883 | 285 ft | 148 kts | 87° |
| 2026-05-07 20:32 | -3.03860 | -60.04955 | 273 ft | 116 kts | 89° |
| 2026-05-07 20:32 | -3.03861 | -60.04330 | 272 ft | 63 kts | 89° |
| 2026-05-07 20:33 | -3.03861 | -60.03997 | 272 ft | 39 kts | 91° |
| 2026-05-07 20:33 | -3.03856 | -60.03814 | 272 ft | 18 kts | 71° |
| 2026-05-07 20:33 | -3.03758 | -60.03773 | 272 ft | 17 kts | 345° |
| 2026-05-07 20:33 | -3.03722 | -60.03785 | 272 ft | 0 kts | 332° |
| 2026-05-07 20:34 | -3.03704 | -60.03804 | 272 ft | 11 kts | 303° |
| 2026-05-07 20:34 | -3.03668 | -60.03902 | 272 ft | 16 kts | 284° |
| 2026-05-07 20:34 | -3.03640 | -60.04006 | 272 ft | 15 kts | 284° |
| 2026-05-07 20:34 | -3.03614 | -60.04103 | 272 ft | 14 kts | 285° |
| 2026-05-07 20:35 | -3.03589 | -60.04193 | 272 ft | 13 kts | 287° |
| 2026-05-07 20:35 | -3.03548 | -60.04272 | 272 ft | 13 kts | 305° |
| 2026-05-07 20:35 | -3.03487 | -60.04332 | 272 ft | 12 kts | 325° |
| 2026-05-07 20:35 | -3.03414 | -60.04368 | 272 ft | 12 kts | 339° |
| 2026-05-07 20:36 | -3.03349 | -60.04407 | 272 ft | 11 kts | 300° |
| 2026-05-07 20:36 | -3.03345 | -60.04481 | 272 ft | 11 kts | 261° |
| 2026-05-07 20:36 | -3.03354 | -60.04554 | 272 ft | 10 kts | 264° |
| 2026-05-07 20:36 | -3.03355 | -60.04603 | 272 ft | 4 kts | 270° |
| 2026-05-07 20:37 | -3.03338 | -60.04621 | 272 ft | 4 kts | 335° |
| 2026-05-07 20:37 | -3.03314 | -60.04626 | 272 ft | 3 kts | 353° |
| 2026-05-07 20:37 | -3.03291 | -60.04623 | 272 ft | 3 kts | 9° |
| 2026-05-07 20:37 | -3.03269 | -60.04620 | 272 ft | 2 kts | 6° |
| 2026-05-07 20:38 | -3.03267 | -60.04620 | 272 ft | 1 kts | 6° |
| 2026-05-07 20:38 | -3.03263 | -60.04620 | 272 ft | 0 kts | 6° |
| 2026-05-07 20:38 | -3.03265 | -60.04620 | 272 ft | 0 kts | 6° |